Time;durP1;ratioP1;P1;durP2;ratioP2;P2;SDS_P1;SDS_P2;PMS_P1;PMS_P2;Temp;Humidity;BMP_temperature;BMP_pressure;BME280_temperature;BME280_humidity;BME280_pressure;Samples;Min_cycle;Max_cycle;Signal;HPM_P1;HPM_P2
2023/04/19 07:01:20;;;;;;;6.63;4.38;;;16.70;99.90;18.30;102393.00;;;;6308181;22;20785;-72
2023/04/19 07:04:06;;;;;;;4.22;2.50;;;16.90;99.90;18.00;102349.00;;;;6280563;22;20246;-71
2023/04/19 07:06:35;;;;;;;2.50;2.20;;;15.60;99.90;19.10;102340.00;;;;6282109;22;20151;-71
2023/04/19 07:09:03;;;;;;;1.80;1.67;;;16.10;99.90;18.40;102374.00;;;;6309451;22;20159;-70
2023/04/19 07:11:31;;;;;;;3.85;3.55;;;16.40;99.90;16.90;102369.00;;;;6282511;22;20144;-70
2023/04/19 07:14:00;;;;;;;1.75;1.65;;;15.40;99.90;19.20;102340.00;;;;6309552;22;20301;-71
2023/04/19 07:16:29;;;;;;;1.40;1.02;;;16.00;99.90;18.10;102339.00;;;;6282420;22;20132;-71
2023/04/19 07:18:56;;;;;;;3.83;2.83;;;15.70;99.90;18.00;102274.00;;;;6280941;22;20147;-71
2023/04/19 07:21:25;;;;;;;1.43;1.20;;;15.30;99.90;17.50;102338.00;;;;6282291;22;20469;-70
2023/04/19 07:23:53;;;;;;;8.20;6.10;;;15.40;99.90;16.10;102364.00;;;;6282686;22;20143;-69
2023/04/19 07:26:25;;;;;;;0.83;0.83;;;15.30;99.90;18.40;102307.00;;;;6309439;22;20142;-70
2023/04/19 07:28:51;;;;;;;4.23;3.83;;;15.50;99.90;17.50;102290.00;;;;6281921;22;20810;-70
2023/04/19 07:31:47;;;;;;;5.53;3.40;;;15.60;99.90;16.80;102262.00;;;;6281712;22;20146;-70
2023/04/19 07:34:16;;;;;;;2.47;1.80;;;14.80;99.90;18.80;102320.00;;;;6268938;22;20159;-70
2023/04/19 07:36:50;;;;;;;6.67;4.43;;;15.70;99.90;15.60;102342.00;;;;6256607;22;20156;-70
2023/04/19 07:39:19;;;;;;;4.33;3.93;;;14.80;99.90;15.70;102305.00;;;;6282288;22;20162;-70
2023/04/19 07:41:48;;;;;;;1.80;1.50;;;14.50;99.90;17.30;102303.00;;;;6281878;22;20208;-70
2023/04/19 07:44:14;;;;;;;4.30;3.60;;;14.80;99.90;17.00;102332.00;;;;6281396;22;20137;-69
2023/04/19 07:46:45;;;;;;;1.00;1.00;;;15.20;99.90;18.90;102332.00;;;;6308947;22;20153;-69
2023/04/19 07:49:34;;;;;;;6.13;4.63;;;15.70;99.90;17.30;102339.00;;;;6307965;22;20665;-69
2023/04/19 07:52:20;;;;;;;6.53;2.80;;;15.40;99.90;16.60;102295.00;;;;6281827;22;20161;-69
2023/04/19 07:55:05;;;;;;;3.90;2.73;;;15.00;99.90;17.10;102286.00;;;;6281243;22;20139;-69
2023/04/19 07:58:07;;;;;;;2.17;2.07;;;15.30;99.90;20.40;102334.00;;;;6255432;22;20241;-69
2023/04/19 08:00:54;;;;;;;6.47;3.37;;;16.40;99.90;17.90;102386.00;;;;6258761;22;20212;-68
2023/04/19 08:03:45;;;;;;;2.00;1.83;;;16.60;99.90;19.90;102321.00;;;;6255817;22;20185;-69
2023/04/19 08:06:17;;;;;;;17.73;4.20;;;16.50;99.90;18.40;102404.00;;;;6280387;22;20161;-69
2023/04/19 08:08:50;;;;;;;1.67;1.42;;;15.90;99.90;20.00;102374.00;;;;6281463;22;20148;-69
2023/04/19 08:11:23;;;;;;;1.23;1.20;;;16.70;99.90;18.10;102393.00;;;;6255406;22;20174;-68
2023/04/19 08:14:05;;;;;;;3.33;2.83;;;16.00;99.90;17.30;102354.00;;;;6308711;22;20269;-68
2023/04/19 08:16:39;;;;;;;0.83;0.83;;;15.60;99.90;19.00;102383.00;;;;6281334;22;20590;-68
2023/04/19 08:19:18;;;;;;;1.63;1.33;;;15.90;99.90;19.80;102371.00;;;;6281198;22;20156;-69
2023/04/19 08:22:16;;;;;;;4.93;2.27;;;16.90;99.90;17.70;102396.00;;;;6255403;22;20186;-68
2023/04/19 08:25:05;;;;;;;1.77;1.65;;;15.90;99.90;17.50;102402.00;;;;6281031;22;20157;-69
2023/04/19 08:27:34;;;;;;;4.67;2.63;;;16.00;99.90;18.10;102409.00;;;;6280315;22;20156;-69
2023/04/19 08:30:00;;;;;;;3.00;2.47;;;15.90;99.90;18.40;102388.00;;;;6281227;22;20152;-70
2023/04/19 08:32:35;;;;;;;1.92;1.48;;;15.90;99.90;18.30;102396.00;;;;6281094;22;20231;-69
2023/04/19 08:35:51;;;;;;;6.33;2.90;;;15.90;99.90;16.80;102406.00;;;;6281381;22;20227;-69
2023/04/19 08:38:17;;;;;;;2.13;1.93;;;15.40;99.90;17.70;102384.00;;;;6255121;22;20166;-69
2023/04/19 08:40:54;;;;;;;4.03;2.93;;;15.60;99.90;17.60;102406.00;;;;6254893;22;20167;-69
2023/04/19 08:43:27;;;;;;;1.37;1.27;;;15.90;99.90;18.30;102385.00;;;;6280634;22;20210;-69
2023/04/19 08:46:36;;;;;;;1.17;1.17;;;15.80;99.90;20.00;102366.00;;;;6254610;22;20151;-69
2023/04/19 08:49:40;;;;;;;4.30;2.83;;;16.60;99.90;20.60;102361.00;;;;6279594;22;20159;-69
2023/04/19 08:52:39;;;;;;;1.45;1.10;;;17.10;99.90;21.70;102339.00;;;;6279965;22;20159;-69
2023/04/19 08:55:42;;;;;;;2.17;1.48;;;17.70;99.90;21.00;102299.00;;;;6280433;22;20155;-69
2023/04/19 08:58:13;;;;;;;1.20;1.17;;;17.90;99.90;23.20;102298.00;;;;6255590;22;20304;-69
2023/04/19 09:01:01;;;;;;;0.45;0.45;;;19.00;99.90;22.00;102307.00;;;;6254500;22;20270;-70
2023/04/19 09:03:53;;;;;;;3.80;1.63;;;19.30;99.90;20.80;102319.00;;;;6281447;22;20164;-69
2023/04/19 09:07:26;;;;;;;3.38;2.95;;;18.50;99.90;19.30;102375.00;;;;6293291;22;20160;-70
2023/04/19 09:10:42;;;;;;;0.10;0.10;;;17.80;99.90;20.10;102367.00;;;;6161591;22;20218;-69
2023/04/19 09:13:08;;;;;;;1.47;1.37;;;17.00;99.90;19.50;102346.00;;;;6132978;23;20576;-70
2023/04/19 09:15:40;;;;;;;2.47;2.23;;;16.90;99.90;19.10;102375.00;;;;6212758;22;20159;-70
2023/04/19 09:18:10;;;;;;;1.30;1.20;;;16.80;99.90;21.30;102337.00;;;;6280263;22;20511;-71
2023/04/19 09:20:44;;;;;;;4.40;3.30;;;17.50;99.90;18.60;102404.00;;;;6308029;22;20143;-71
2023/04/19 09:23:13;;;;;;;1.67;1.57;;;16.90;99.90;18.30;102354.00;;;;6280497;22;20179;-70
2023/04/19 09:25:51;;;;;;;0.73;0.73;;;16.60;99.90;19.20;102384.00;;;;6280555;22;20197;-70
2023/04/19 09:28:16;;;;;;;5.00;2.07;;;16.50;99.90;19.90;102362.00;;;;6280951;22;20158;-70
2023/04/19 09:30:42;;;;;;;2.97;2.00;;;17.00;99.90;19.10;102376.00;;;;6254386;22;20472;-70
2023/04/19 09:33:08;;;;;;;1.60;1.40;;;17.00;99.90;19.00;102369.00;;;;6308018;22;20144;-70
2023/04/19 09:35:48;;;;;;;1.40;0.97;;;16.80;99.90;19.50;102339.00;;;;6255254;22;20161;-70
2023/04/19 09:38:15;;;;;;;2.20;2.00;;;16.90;99.90;18.50;102391.00;;;;6280658;22;20151;-70
2023/04/19 09:40:44;;;;;;;1.30;1.20;;;16.60;99.90;20.20;102317.00;;;;6254894;22;20174;-70
2023/04/19 09:43:25;;;;;;;3.53;3.17;;;17.20;99.90;19.60;102366.00;;;;6280632;22;20176;-71
2023/04/19 09:46:00;;;;;;;2.85;1.63;;;17.50;99.90;20.10;102357.00;;;;6280503;22;20152;-71
2023/04/19 09:48:26;;;;;;;4.53;2.27;;;17.50;99.90;19.00;102340.00;;;;6280722;22;20222;-71
2023/04/19 09:51:10;;;;;;;0.37;0.37;;;17.00;99.90;20.70;102342.00;;;;6280808;22;20266;-70
2023/04/19 09:53:39;;;;;;;1.95;1.80;;;17.20;99.90;19.90;102304.00;;;;6280157;22;20289;-71
2023/04/19 09:56:06;;;;;;;2.28;2.08;;;17.60;99.90;20.70;102276.00;;;;6308043;22;20139;-71
2023/04/19 09:58:36;;;;;;;3.15;2.35;;;17.90;99.90;20.40;102332.00;;;;6280251;22;20209;-70
2023/04/19 10:01:03;;;;;;;1.45;1.35;;;18.20;99.90;22.10;102294.00;;;;6280326;22;20160;-71
2023/04/19 10:03:30;;;;;;;0.63;0.63;;;18.60;99.90;23.50;102280.00;;;;6280063;22;20590;-71
2023/04/19 10:05:57;;;;;;;2.45;2.22;;;19.20;99.90;20.20;102339.00;;;;6280639;22;20156;-71
2023/04/19 10:08:24;;;;;;;3.25;2.72;;;18.80;99.90;20.00;102349.00;;;;6280437;22;20144;-70
2023/04/19 10:10:53;;;;;;;2.65;1.77;;;18.10;99.90;19.80;102319.00;;;;6280323;22;20596;-71
2023/04/19 10:13:22;;;;;;;2.22;1.50;;;17.50;99.90;19.90;102334.00;;;;6280391;22;20147;-70
2023/04/19 10:15:48;;;;;;;0.98;0.98;;;17.40;99.90;22.60;102291.00;;;;6255247;22;20217;-71
2023/04/19 10:18:15;;;;;;;0.32;0.32;;;18.50;99.90;22.90;102286.00;;;;6307168;22;20219;-71
2023/04/19 10:33:35;;;;;;;1.40;1.30;;;18.00;99.90;22.60;102304.00;;;;5126483;27;21014;-69
2023/04/19 10:36:05;;;;;;;1.65;1.55;;;18.80;99.90;21.50;102300.00;;;;5089780;28;20219;-69
2023/04/19 10:38:59;;;;;;;1.17;0.98;;;19.00;99.90;20.50;102306.00;;;;5073025;28;20177;-69
2023/04/19 10:41:58;;;;;;;1.77;1.65;;;18.60;99.90;22.10;102292.00;;;;5089216;28;20180;-69
2023/04/19 10:44:26;;;;;;;1.55;1.23;;;18.70;99.90;21.50;102292.00;;;;5085392;28;20540;-69
2023/04/19 10:46:58;;;;;;;1.58;1.05;;;18.80;99.90;22.40;102263.00;;;;5090592;28;20184;-69
2023/04/19 10:49:27;;;;;;;2.08;0.82;;;19.30;99.90;21.40;102283.00;;;;5072373;28;20188;-69
2023/04/19 10:51:58;;;;;;;1.08;0.50;;;18.80;99.90;21.10;102297.00;;;;5071477;28;20565;-69
2023/04/19 10:54:36;;;;;;;0.52;0.52;;;18.30;99.90;21.80;102265.00;;;;5072660;28;20185;-68
2023/04/19 10:57:10;;;;;;;2.63;1.98;;;18.70;99.90;21.20;102286.00;;;;5068727;28;20192;-69
2023/04/19 11:00:25;;;;;;;3.13;2.83;;;18.90;99.90;22.00;102273.00;;;;5068506;28;20227;-69
2023/04/19 11:02:52;;;;;;;5.38;1.52;;;19.10;99.90;20.40;102287.00;;;;5068547;28;20658;-69
2023/04/19 11:05:19;;;;;;;3.05;2.28;;;18.30;99.90;22.10;102260.00;;;;5080433;28;20189;-68
2023/04/19 11:07:45;;;;;;;2.17;1.98;;;18.90;99.90;21.10;102266.00;;;;5074772;28;20182;-69
2023/04/19 11:10:11;;;;;;;2.30;1.92;;;19.10;99.90;22.10;102245.00;;;;5069661;28;20185;-69
2023/04/19 11:12:41;;;;;;;6.85;2.70;;;19.20;99.90;22.10;102277.00;;;;5089721;28;20200;-69
2023/04/19 11:15:08;;;;;;;2.50;1.70;;;19.10;99.90;23.30;102243.00;;;;5089058;28;20193;-69
2023/04/19 11:17:36;;;;;;;5.25;2.65;;;19.60;99.90;20.70;102275.00;;;;5085112;28;20518;-69
2023/04/19 11:20:12;;;;;;;2.47;2.28;;;18.60;99.90;21.10;102268.00;;;;5068346;28;20182;-68
2023/04/19 11:22:47;;;;;;;3.92;3.50;;;18.40;99.90;22.20;102237.00;;;;5071774;28;20243;-69
2023/04/19 11:25:18;;;;;;;1.88;1.77;;;19.20;99.90;21.10;102265.00;;;;5086837;28;20212;-68
2023/04/19 11:28:05;;;;;;;4.03;3.50;;;19.20;99.90;20.10;102288.00;;;;5071184;28;20188;-68
2023/04/19 11:30:40;;;;;;;0.65;0.65;;;18.10;99.90;22.20;102257.00;;;;5068123;28;20188;-68
2023/04/19 11:33:06;;;;;;;2.55;2.20;;;18.60;99.90;21.70;102238.00;;;;5071162;28;20215;-69
2023/04/19 11:35:32;;;;;;;0.93;0.88;;;19.10;99.90;21.60;102252.00;;;;5087209;28;20189;-68
2023/04/19 11:37:58;;;;;;;1.30;1.20;;;18.80;99.90;22.50;102235.00;;;;5069942;28;20436;-68
2023/04/19 11:40:25;;;;;;;2.08;1.95;;;19.00;99.90;22.80;102261.00;;;;5070988;28;20635;-68
2023/04/19 11:43:17;;;;;;;1.45;1.35;;;19.20;99.90;23.30;102225.00;;;;5086008;28;20197;-69
2023/04/19 11:45:44;;;;;;;2.45;2.20;;;19.70;99.90;21.00;102251.00;;;;5040493;28;20194;-68
2023/04/19 11:48:19;;;;;;;2.15;1.20;;;19.40;99.90;21.20;102237.00;;;;5063949;28;20188;-68
2023/04/19 11:50:59;;;;;;;0.60;0.60;;;18.70;99.90;21.20;102229.00;;;;5057439;28;20635;-68
2023/04/19 11:53:31;;;;;;;4.18;2.42;;;18.20;99.90;20.70;102191.00;;;;5074559;28;20197;-68
2023/04/19 11:56:14;;;;;;;1.88;1.58;;;18.40;99.90;21.50;102217.00;;;;5057227;28;20264;-68
2023/04/19 11:58:49;;;;;;;2.65;1.67;;;18.30;99.90;21.20;102205.00;;;;5057485;28;20182;-68
2023/04/19 12:01:20;;;;;;;1.88;1.77;;;18.50;99.90;21.60;102210.00;;;;5075230;28;20639;-68
2023/04/19 12:03:51;;;;;;;3.35;0.50;;;18.40;99.90;22.00;102208.00;;;;5057524;28;20303;-68
2023/04/19 12:06:32;;;;;;;3.90;1.67;;;18.50;99.90;19.80;102229.00;;;;5055472;28;20542;-68
2023/04/19 12:08:58;;;;;;;7.63;3.17;;;18.30;99.90;20.30;102240.00;;;;5055601;28;20236;-68
2023/04/19 12:11:49;;;;;;;3.05;1.77;;;18.10;99.90;20.10;102230.00;;;;5057876;28;20201;-68
2023/04/19 12:14:22;;;;;;;2.80;2.23;;;18.30;99.90;19.60;102245.00;;;;5074051;28;20189;-68
2023/04/19 12:17:14;;;;;;;2.00;1.30;;;17.70;99.90;19.90;102246.00;;;;5057386;28;20189;-68
2023/04/19 12:19:45;;;;;;;1.10;0.97;;;17.50;99.90;20.90;102235.00;;;;5053103;28;20216;-68
2023/04/19 12:22:19;;;;;;;7.53;0.83;;;17.80;99.90;20.30;102245.00;;;;5059740;28;20189;-68
2023/04/19 12:24:50;;;;;;;3.10;2.73;;;17.80;99.90;18.80;102261.00;;;;5054560;28;20297;-69
2023/04/19 12:27:18;;;;;;;0.73;0.73;;;17.60;99.90;20.20;102243.00;;;;5056964;28;20184;-68
2023/04/19 12:29:51;;;;;;;1.70;1.60;;;17.30;99.90;19.50;102243.00;;;;5057281;28;20188;-68
2023/04/19 12:32:19;;;;;;;2.43;2.17;;;17.30;99.90;20.50;102243.00;;;;5053708;28;20221;-68
2023/04/19 12:34:45;;;;;;;3.73;2.13;;;17.50;99.90;19.50;102252.00;;;;5055971;28;20188;-68
2023/04/19 12:37:13;;;;;;;1.87;1.77;;;17.60;99.90;19.30;102266.00;;;;5039260;28;20272;-68
2023/04/19 12:39:41;;;;;;;2.90;2.00;;;17.50;99.90;20.50;102246.00;;;;5056844;28;20248;-68
2023/04/19 12:42:08;;;;;;;4.40;1.43;;;17.40;99.90;19.80;102256.00;;;;5040055;28;20189;-68
2023/04/19 12:44:33;;;;;;;2.00;1.80;;;17.20;99.90;18.40;102262.00;;;;5043462;28;20192;-68
2023/04/19 12:47:01;;;;;;;3.57;1.50;;;17.00;99.90;18.70;102277.00;;;;5056825;28;20184;-68
2023/04/19 12:49:26;;;;;;;1.77;1.23;;;16.70;99.90;19.00;102212.00;;;;5074388;28;20452;-68
2023/04/19 12:51:52;;;;;;;2.53;1.13;;;16.70;99.90;19.90;102246.00;;;;5053032;28;20199;-68
2023/04/19 12:54:18;;;;;;;1.83;1.70;;;17.00;99.90;18.30;102257.00;;;;5033760;28;20193;-68
2023/04/19 12:56:44;;;;;;;1.40;1.30;;;16.80;99.90;19.20;102245.00;;;;5073706;28;20185;-68
2023/04/19 12:59:13;;;;;;;7.60;2.47;;;16.80;99.90;18.20;102246.00;;;;5065674;28;20185;-68
2023/04/19 13:02:06;;;;;;;0.80;0.80;;;16.70;99.90;19.30;102239.00;;;;5074095;28;20203;-68
2023/04/19 13:04:50;;;;;;;1.77;1.40;;;16.90;99.90;18.70;102225.00;;;;5048012;28;20193;-68
2023/04/19 13:07:16;;;;;;;1.03;1.03;;;16.60;99.90;19.00;102193.00;;;;5073378;28;20202;-68
2023/04/19 13:09:42;;;;;;;1.00;0.90;;;16.70;99.90;19.70;102229.00;;;;5074117;28;20266;-68
2023/04/19 13:12:11;;;;;;;1.87;1.30;;;16.70;99.90;19.70;102240.00;;;;5056563;28;20288;-68
2023/04/19 13:14:39;;;;;;;1.63;1.00;;;17.00;99.90;18.40;102235.00;;;;5074161;28;20183;-68
2023/04/19 13:17:08;;;;;;;1.70;1.60;;;16.50;99.90;18.70;102215.00;;;;5061180;28;20206;-68
2023/04/19 13:19:37;;;;;;;1.70;1.60;;;16.50;99.90;19.70;102220.00;;;;5052922;28;20222;-68
2023/04/19 13:22:03;;;;;;;0.43;0.43;;;16.90;99.90;20.30;102216.00;;;;5055936;28;20225;-68
2023/04/19 13:24:36;;;;;;;1.00;0.90;;;17.10;99.90;18.70;102226.00;;;;5056466;28;20192;-69
2023/04/19 13:27:31;;;;;;;1.67;1.13;;;16.80;99.90;19.50;102210.00;;;;5073594;28;20185;-68
2023/04/19 13:30:00;;;;;;;1.47;0.93;;;16.70;99.90;20.30;102172.00;;;;5073719;28;20187;-69
2023/04/19 13:32:26;;;;;;;2.00;1.33;;;17.00;99.90;19.70;102199.00;;;;5072877;28;20218;-69
2023/04/19 13:34:52;;;;;;;2.50;1.60;;;16.90;99.90;19.50;102192.00;;;;5055975;28;20642;-69
2023/04/19 13:37:18;;;;;;;1.37;1.13;;;17.00;99.90;19.30;102211.00;;;;5073579;28;20195;-69
2023/04/19 13:39:44;;;;;;;2.77;2.20;;;16.80;99.90;18.40;102212.00;;;;5074110;28;20261;-69
2023/04/19 13:42:11;;;;;;;1.67;1.03;;;16.60;99.90;18.50;102201.00;;;;5055853;28;20176;-69
2023/04/19 13:44:37;;;;;;;0.63;0.63;;;16.30;99.90;19.30;102197.00;;;;5073725;28;20182;-69
2023/04/19 13:47:02;;;;;;;0.87;0.70;;;16.40;99.90;18.50;102213.00;;;;5041020;28;20514;-69
2023/04/19 13:49:44;;;;;;;1.03;0.87;;;16.60;99.90;19.90;102143.00;;;;5067629;28;20277;-69
2023/04/19 13:52:13;;;;;;;1.00;0.90;;;16.60;99.90;18.90;102151.00;;;;5047979;28;20574;-69
2023/04/19 13:54:39;;;;;;;1.33;1.03;;;16.60;99.90;18.40;102176.00;;;;5067564;28;20546;-69
2023/04/19 13:57:05;;;;;;;0.43;0.43;;;16.30;99.90;19.40;102176.00;;;;5055344;28;20185;-69
2023/04/19 13:59:31;;;;;;;0.57;0.57;;;16.50;99.90;19.50;102177.00;;;;5062374;28;20238;-69
2023/04/19 14:02:02;;;;;;;0.20;0.20;;;16.60;99.90;19.80;102125.00;;;;5060232;28;20194;-69
2023/04/19 14:04:58;;;;;;;0.57;0.40;;;16.80;99.90;19.80;102162.00;;;;5050616;28;20186;-69
2023/04/19 14:07:26;;;;;;;0.50;0.47;;;16.90;99.90;20.50;102160.00;;;;5054923;28;20193;-69
2023/04/19 14:09:53;;;;;;;1.00;0.90;;;17.00;99.90;18.90;102163.00;;;;5059852;28;20267;-69
2023/04/19 14:12:21;;;;;;;1.23;0.93;;;16.80;99.90;19.00;102119.00;;;;5068162;28;20215;-69
2023/04/19 14:15:02;;;;;;;0.30;0.30;;;16.60;99.90;19.60;102152.00;;;;5055156;28;20647;-69
2023/04/19 14:17:28;;;;;;;0.10;0.10;;;16.70;99.90;20.00;102159.00;;;;5072641;28;20198;-69
2023/04/19 14:19:55;;;;;;;1.47;1.37;;;16.90;99.90;19.00;102156.00;;;;5073091;28;20191;-69
2023/04/19 14:22:57;;;;;;;0.67;0.67;;;16.90;99.90;19.50;102128.00;;;;5072812;28;20545;-69
2023/04/19 14:25:49;;;;;;;0.13;0.13;;;16.70;99.90;19.90;102145.00;;;;5051710;28;20174;-69
2023/04/19 14:28:17;;;;;;;0.67;0.67;;;16.80;99.90;18.80;102161.00;;;;5049098;28;20201;-69
2023/04/19 14:30:51;;;;;;;2.07;1.20;;;16.80;99.90;18.30;102139.00;;;;5068953;28;20214;-70
2023/04/19 14:33:19;;;;;;;1.30;1.10;;;16.10;99.90;17.90;102176.00;;;;5071396;28;20220;-69
2023/04/19 14:35:46;;;;;;;1.10;1.10;;;16.20;99.90;18.20;102146.00;;;;5055431;28;20183;-69
2023/04/19 14:38:12;;;;;;;3.33;2.53;;;16.20;99.90;18.90;102137.00;;;;5051948;28;20190;-69
2023/04/19 14:40:38;;;;;;;0.77;0.67;;;16.30;99.90;18.50;102153.00;;;;5069131;28;20646;-69
2023/04/19 14:43:04;;;;;;;2.17;2.00;;;16.40;99.90;19.80;102119.00;;;;5072991;28;20181;-70
2023/04/19 14:45:33;;;;;;;0.93;0.83;;;16.50;99.90;19.30;102130.00;;;;5051385;28;20713;-69
2023/04/19 14:47:59;;;;;;;1.73;1.17;;;16.40;99.90;19.60;102121.00;;;;5061906;28;20195;-69
2023/04/19 14:50:25;;;;;;;1.90;1.13;;;16.70;99.90;18.00;102144.00;;;;5072425;28;20303;-69
2023/04/19 14:52:53;;;;;;;0.67;0.67;;;16.40;99.90;19.10;102126.00;;;;5063679;28;20664;-69
2023/04/19 14:55:19;;;;;;;1.23;1.23;;;16.50;99.90;18.50;102139.00;;;;5054681;28;20615;-69
2023/04/19 14:57:48;;;;;;;0.90;0.70;;;16.40;99.90;19.30;102117.00;;;;5072666;28;20229;-69
2023/04/19 15:00:17;;;;;;;1.23;1.07;;;16.60;99.90;18.80;102120.00;;;;5072756;28;20241;-69
2023/04/19 15:02:43;;;;;;;1.73;1.60;;;16.50;99.90;17.40;102144.00;;;;5060386;28;20194;-69
2023/04/19 15:05:09;;;;;;;1.50;1.00;;;16.10;99.90;18.20;102100.00;;;;5064802;28;20210;-69
2023/04/19 15:07:35;;;;;;;2.23;2.03;;;16.00;99.90;19.30;102111.00;;;;5048562;28;20569;-69
2023/04/19 15:10:07;;;;;;;2.10;1.10;;;16.30;99.90;19.60;102118.00;;;;5054723;28;20247;-69
2023/04/19 15:13:03;;;;;;;0.50;0.50;;;16.50;99.90;19.90;102100.00;;;;5055638;28;20702;-69
2023/04/19 15:15:32;;;;;;;2.60;1.00;;;16.50;99.90;18.30;102118.00;;;;5052047;28;20273;-69
2023/04/19 15:17:58;;;;;;;0.80;0.77;;;16.40;99.90;18.30;102112.00;;;;5068044;28;20170;-69
2023/04/19 15:20:24;;;;;;;0.87;0.83;;;16.10;99.90;19.60;102093.00;;;;5076021;28;20184;-70
2023/04/19 15:22:52;;;;;;;1.17;0.67;;;16.40;99.90;17.80;102128.00;;;;5076170;28;20181;-69
2023/04/19 15:25:26;;;;;;;3.50;1.23;;;16.10;99.90;18.40;102100.00;;;;5075852;28;20510;-69
2023/04/19 15:27:55;;;;;;;1.73;1.37;;;16.00;99.90;17.30;102115.00;;;;5058686;28;20180;-69
2023/04/19 15:30:43;;;;;;;2.23;1.00;;;15.80;99.90;18.30;102114.00;;;;5047027;28;20227;-69
2023/04/19 15:33:11;;;;;;;0.40;0.40;;;16.00;99.90;19.00;102079.00;;;;5075125;28;20218;-69
2023/04/19 15:35:39;;;;;;;2.03;1.93;;;16.20;99.90;18.00;102094.00;;;;5054941;28;20279;-70
2023/04/19 15:38:11;;;;;;;2.30;1.60;;;16.10;99.90;17.60;102115.00;;;;5053398;28;20541;-69
2023/04/19 15:40:37;;;;;;;3.43;1.73;;;15.90;99.90;17.80;102100.00;;;;5058099;28;20730;-69
2023/04/19 15:43:05;;;;;;;0.80;0.77;;;15.80;99.90;18.00;102047.00;;;;5057946;28;20192;-69
2023/04/19 15:45:31;;;;;;;1.97;1.50;;;15.70;99.90;17.50;102078.00;;;;5057930;28;20550;-69
2023/04/19 15:48:00;;;;;;;0.80;0.80;;;15.60;99.90;18.90;102064.00;;;;5054149;28;20184;-69
2023/04/19 15:50:28;;;;;;;1.23;1.13;;;15.90;99.90;19.30;102078.00;;;;5075076;28;20183;-69
2023/04/19 15:52:57;;;;;;;0.40;0.40;;;16.30;99.70;19.20;102059.00;;;;5053666;28;20204;-70
2023/04/19 15:55:23;;;;;;;1.23;0.77;;;16.30;99.90;19.40;102025.00;;;;5074610;28;20213;-69
2023/04/19 15:57:52;;;;;;;0.70;0.70;;;16.30;99.90;18.70;102078.00;;;;5054335;28;20198;-69
2023/04/19 16:00:21;;;;;;;2.30;0.80;;;16.00;99.90;19.40;102023.00;;;;5053480;28;20212;-69
2023/04/19 16:02:47;;;;;;;2.93;1.03;;;16.20;99.90;18.30;102068.00;;;;5061750;28;20191;-69
2023/04/19 16:05:14;;;;;;;1.20;1.10;;;15.80;99.90;18.40;102090.00;;;;5045226;28;20556;-69
2023/04/19 16:07:44;;;;;;;0.20;0.20;;;15.90;99.90;18.60;102074.00;;;;5051075;28;20205;-69
2023/04/19 16:10:12;;;;;;;0.67;0.67;;;15.90;99.90;19.50;102067.00;;;;5044080;28;20191;-69
2023/04/19 16:12:38;;;;;;;0.67;0.57;;;16.20;99.10;19.60;102061.00;;;;5046481;28;20254;-69
2023/04/19 16:15:05;;;;;;;0.87;0.87;;;16.30;99.30;19.30;102072.00;;;;5057543;28;20188;-69
2023/04/19 16:17:31;;;;;;;1.17;1.07;;;16.30;99.50;17.90;102038.00;;;;5062310;28;20192;-69
2023/04/19 16:19:57;;;;;;;0.37;0.37;;;16.00;99.90;18.70;102068.00;;;;5054396;28;20178;-69
2023/04/19 16:22:27;;;;;;;2.23;0.53;;;16.00;99.90;18.20;102082.00;;;;5074300;28;20279;-69
2023/04/19 16:24:52;;;;;;;0.70;0.70;;;15.90;99.90;18.60;102081.00;;;;5075188;28;20187;-69
2023/04/19 16:27:18;;;;;;;1.20;1.10;;;15.80;99.90;18.00;102081.00;;;;5054996;28;20192;-69
2023/04/19 16:30:06;;;;;;;1.90;1.60;;;15.70;99.90;17.70;102075.00;;;;5054022;28;20195;-69
2023/04/19 16:32:55;;;;;;;0.43;0.43;;;15.60;99.90;18.00;102081.00;;;;5052289;28;20214;-69
2023/04/19 16:35:26;;;;;;;0.93;0.93;;;15.70;99.90;18.10;102070.00;;;;5050570;28;20217;-69
2023/04/19 16:37:59;;;;;;;1.13;1.03;;;15.60;99.90;17.40;102068.00;;;;5057285;28;20205;-69
2023/04/19 16:40:25;;;;;;;1.40;1.30;;;15.50;99.90;17.50;102074.00;;;;5074733;28;20204;-69
2023/04/19 16:42:51;;;;;;;0.23;0.23;;;15.40;99.90;17.90;102068.00;;;;5060588;28;20210;-69
2023/04/19 16:45:17;;;;;;;1.00;0.70;;;15.40;99.90;19.70;102046.00;;;;5065818;28;20254;-70
2023/04/19 16:48:03;;;;;;;0.93;0.93;;;15.90;99.90;17.90;102067.00;;;;5052791;28;20725;-69
2023/04/19 16:50:29;;;;;;;0.10;0.10;;;15.70;99.90;18.80;102060.00;;;;5039991;28;20188;-70
2023/04/19 16:53:16;;;;;;;2.40;1.83;;;15.60;99.90;18.40;102056.00;;;;5056696;28;20257;-70
2023/04/19 16:55:44;;;;;;;2.00;1.47;;;15.80;99.90;18.10;102064.00;;;;5051018;28;20883;-70
2023/04/19 16:58:33;;;;;;;1.33;1.23;;;15.70;99.90;17.50;102081.00;;;;5056412;28;20206;-70
2023/04/19 17:01:04;;;;;;;0.87;0.87;;;15.40;99.90;17.60;102072.00;;;;5055622;28;20183;-69
2023/04/19 17:03:47;;;;;;;2.23;1.90;;;15.30;99.90;17.10;102022.00;;;;5074434;28;20197;-69
2023/04/19 17:06:16;;;;;;;4.33;3.53;;;15.20;99.90;17.00;102095.00;;;;5050246;28;20182;-69
2023/04/19 17:08:42;;;;;;;0.60;0.60;;;15.00;99.90;17.80;102010.00;;;;5053169;28;20187;-69
2023/04/19 17:11:10;;;;;;;2.23;1.50;;;15.20;99.90;18.60;102050.00;;;;5038287;28;20676;-70
2023/04/19 17:13:41;;;;;;;1.63;1.00;;;15.30;99.90;17.70;102069.00;;;;5070202;28;20211;-69
2023/04/19 17:16:07;;;;;;;2.70;1.87;;;15.30;99.90;16.80;102076.00;;;;5036502;28;20597;-69
2023/04/19 17:18:54;;;;;;;1.07;0.97;;;15.00;99.90;17.40;102063.00;;;;5070810;28;20222;-69
2023/04/19 17:21:20;;;;;;;1.73;0.97;;;15.10;99.90;17.30;102055.00;;;;5067280;28;20199;-69
2023/04/19 17:23:58;;;;;;;3.90;1.50;;;15.10;99.90;16.90;102067.00;;;;5066460;28;20658;-69
2023/04/19 17:26:48;;;;;;;0.73;0.73;;;14.90;99.90;17.80;102056.00;;;;5072447;28;20234;-69
2023/04/19 17:29:48;;;;;;;0.57;0.57;;;15.00;99.90;18.00;102048.00;;;;5073476;28;20216;-69
2023/04/19 17:32:21;;;;;;;1.30;1.20;;;15.30;99.90;17.90;102045.00;;;;5040595;28;20303;-69
2023/04/19 17:34:49;;;;;;;1.43;0.60;;;15.40;99.90;17.80;102059.00;;;;5072631;28;20186;-69
2023/04/19 17:37:36;;;;;;;0.17;0.17;;;15.10;99.90;17.80;102051.00;;;;5073318;28;20597;-69
2023/04/19 17:40:05;;;;;;;0.40;0.40;;;15.10;99.90;17.90;102057.00;;;;5044155;28;20193;-69
2023/04/19 17:42:50;;;;;;;0.27;0.27;;;15.10;99.90;17.90;102064.00;;;;5047167;28;20196;-70
2023/04/19 17:45:41;;;;;;;1.53;1.43;;;15.10;99.90;17.10;102055.00;;;;5072381;28;20198;-70
2023/04/19 17:48:16;;;;;;;0.80;0.80;;;15.00;99.90;17.60;102062.00;;;;5045379;28;20198;-69
2023/04/19 17:50:46;;;;;;;2.27;0.97;;;14.90;99.90;17.30;102053.00;;;;5046936;28;20256;-70
2023/04/19 17:53:12;;;;;;;1.73;1.23;;;14.80;99.90;17.30;102045.00;;;;5038714;28;20682;-69
2023/04/19 17:55:39;;;;;;;1.40;1.17;;;14.70;99.90;16.50;102014.00;;;;5073081;28;20194;-69
2023/04/19 17:58:06;;;;;;;0.97;0.93;;;14.60;99.90;16.70;102068.00;;;;5055512;28;20190;-69
2023/04/19 18:00:41;;;;;;;1.30;0.60;;;14.60;99.90;16.90;102065.00;;;;5037336;28;20187;-69
2023/04/19 18:03:13;;;;;;;1.23;0.60;;;14.50;99.90;17.10;102056.00;;;;5051755;28;20291;-69
2023/04/19 18:05:42;;;;;;;1.20;1.10;;;14.50;99.90;17.70;102065.00;;;;5051152;28;20182;-69
2023/04/19 18:08:12;;;;;;;2.63;1.80;;;14.70;99.90;16.70;102065.00;;;;5051084;28;20541;-69
2023/04/19 18:10:38;;;;;;;0.60;0.60;;;14.60;99.90;16.70;102073.00;;;;5052293;28;20529;-70
2023/04/19 18:13:36;;;;;;;1.23;1.10;;;14.40;99.90;16.10;102070.00;;;;5049122;28;20205;-69
2023/04/19 18:16:04;;;;;;;1.60;1.50;;;14.30;99.90;16.80;102071.00;;;;5065537;28;20178;-69
2023/04/19 18:18:59;;;;;;;0.67;0.67;;;14.30;99.90;16.60;102016.00;;;;5073164;28;20270;-69
2023/04/19 18:21:32;;;;;;;1.07;0.97;;;14.30;99.90;16.40;102075.00;;;;5055196;28;20247;-69
2023/04/19 18:23:58;;;;;;;0.93;0.87;;;14.10;99.90;16.80;102077.00;;;;5051993;28;20190;-69
2023/04/19 18:26:43;;;;;;;1.20;1.10;;;14.10;99.90;16.10;102079.00;;;;5068734;28;20199;-69
2023/04/19 18:29:23;;;;;;;2.73;1.43;;;14.10;99.90;16.60;102083.00;;;;5071630;28;20201;-69